Time;durP1;ratioP1;P1;durP2;ratioP2;P2;SDS_P1;SDS_P2;PMS_P1;PMS_P2;Temp;Humidity;BMP_temperature;BMP_pressure;BME280_temperature;BME280_humidity;BME280_pressure;Samples;Min_cycle;Max_cycle;Signal;HPM_P1;HPM_P2
2024/01/05 00:01:26;;;;;;;;;;;;;;;7.77;47.51;100860.00;5065256;28;19959;-88
2024/01/05 00:03:52;;;;;;;;;;;;;;;7.79;47.54;100860.59;5062466;28;20356;-88
2024/01/05 00:06:17;;;;;;;;;;;;;;;7.86;47.79;100863.16;5062464;28;19921;-88
2024/01/05 00:08:42;;;;;;;;;;;;;;;7.89;47.82;100863.50;5062772;28;19921;-89
2024/01/05 00:11:08;;;;;;;;;;;;;;;7.89;46.74;100862.69;5063835;28;19975;-89
2024/01/05 00:13:33;;;;;;;;;;;;;;;7.86;47.02;100871.16;5060116;28;20365;-90
2024/01/05 00:15:58;;;;;;;;;;;;;;;7.82;47.01;100870.78;5066330;28;19917;-89
2024/01/05 00:18:24;;;;;;;;;;;;;;;7.80;46.85;100872.88;5064541;28;19929;-89
2024/01/05 00:20:49;;;;;;;;;;;;;;;7.80;47.18;100869.41;5060247;28;20462;-90
2024/01/05 00:23:15;;;;;;;;;;;;;;;7.76;47.39;100869.03;5064733;28;20357;-88
2024/01/05 00:25:40;;;;;;;;;;;;;;;7.75;46.96;100869.28;5058382;28;19924;-89
2024/01/05 00:28:05;;;;;;;;;;;;;;;7.77;47.05;100875.19;5066107;28;19913;-90
2024/01/05 00:30:33;;;;;;;;;;;;;;;7.79;47.02;100868.59;5055051;28;19947;-89
2024/01/05 00:32:58;;;;;;;;;;;;;;;7.81;46.75;100874.50;5056913;28;19916;-89
2024/01/05 00:35:23;;;;;;;;;;;;;;;7.83;46.96;100872.41;5060504;28;19931;-88
2024/01/05 00:37:49;;;;;;;;;;;;;;;7.85;47.11;100872.19;5062267;28;20071;-89
2024/01/05 00:40:14;;;;;;;;;;;;;;;7.84;46.15;100876.72;5060164;28;19998;-89
2024/01/05 00:42:39;;;;;;;;;;;;;;;7.81;46.70;100876.34;5065486;28;19993;-89
2024/01/05 00:45:05;;;;;;;;;;;;;;;7.76;47.14;100882.38;5059174;28;19946;-89
2024/01/05 00:47:30;;;;;;;;;;;;;;;7.77;46.75;100875.19;5061697;28;19924;-89
2024/01/05 00:49:55;;;;;;;;;;;;;;;7.73;46.33;100866.03;5060659;28;19917;-89
2024/01/05 00:52:21;;;;;;;;;;;;;;;7.73;46.08;100860.69;5060937;28;19916;-89
2024/01/05 00:54:48;;;;;;;;;;;;;;;7.72;46.78;100857.22;5061604;28;21288;-89
2024/01/05 00:57:13;;;;;;;;;;;;;;;7.75;46.74;100861.28;5061174;28;20392;-89
2024/01/05 00:59:38;;;;;;;;;;;;;;;7.79;46.79;100851.78;5063414;28;19931;-90
2024/01/05 01:02:04;;;;;;;;;;;;;;;7.81;47.06;100845.16;5061758;28;20015;-89
2024/01/05 01:04:29;;;;;;;;;;;;;;;7.84;46.48;100849.22;5063075;28;19912;-89
2024/01/05 01:06:55;;;;;;;;;;;;;;;7.83;47.08;100851.09;5063836;28;19932;-89
2024/01/05 01:09:20;;;;;;;;;;;;;;;7.85;46.61;100861.53;5063718;28;19928;-87
2024/01/05 01:11:48;;;;;;;;;;;;;;;7.84;46.71;100860.72;5059679;28;19916;-89
2024/01/05 01:14:13;;;;;;;;;;;;;;;7.86;46.96;100863.16;5063870;28;19916;-89
2024/01/05 01:16:39;;;;;;;;;;;;;;;7.86;46.48;100877.28;5062230;28;20373;-89
2024/01/05 01:19:04;;;;;;;;;;;;;;;7.86;46.11;100879.16;5061122;28;19925;-87
2024/01/05 01:21:29;;;;;;;;;;;;;;;7.86;45.98;100889.81;5059135;28;20356;-89
2024/01/05 01:23:55;;;;;;;;;;;;;;;7.82;46.05;100886.00;5061798;28;20003;-90
2024/01/05 01:26:20;;;;;;;;;;;;;;;7.79;45.89;100894.44;5061775;28;19956;-89
2024/01/05 01:28:45;;;;;;;;;;;;;;;7.75;46.11;100893.28;5089529;28;19924;-89
2024/01/05 01:31:10;;;;;;;;;;;;;;;7.71;46.09;100894.75;5060453;28;19921;-88
2024/01/05 01:33:36;;;;;;;;;;;;;;;7.72;46.47;100893.69;5062286;28;19916;-88
2024/01/05 01:36:01;;;;;;;;;;;;;;;7.74;46.54;100887.13;5056309;28;20575;-89
2024/01/05 01:38:26;;;;;;;;;;;;;;;7.73;46.58;100890.84;5057506;28;19929;-89
2024/01/05 01:40:55;;;;;;;;;;;;;;;7.71;46.19;100895.56;5059250;28;19921;-88
2024/01/05 01:43:21;;;;;;;;;;;;;;;7.66;45.68;100887.44;5058288;28;19917;-90
2024/01/05 01:45:46;;;;;;;;;;;;;;;7.63;45.86;100884.41;5059332;28;19924;-89
2024/01/05 01:48:12;;;;;;;;;;;;;;;7.64;46.48;100886.84;5057785;28;19921;-89
2024/01/05 01:50:37;;;;;;;;;;;;;;;7.67;46.00;100886.38;5058958;28;20046;-89
2024/01/05 01:53:03;;;;;;;;;;;;;;;7.69;45.79;100889.63;5058301;28;20304;-88
2024/01/05 01:55:28;;;;;;;;;;;;;;;7.69;45.27;100894.16;5058323;28;19917;-89
2024/01/05 01:57:53;;;;;;;;;;;;;;;7.67;45.75;100888.25;5058866;28;19926;-88
2024/01/05 02:00:19;;;;;;;;;;;;;;;7.66;46.08;100881.28;5059173;28;19916;-89
2024/01/05 02:02:45;;;;;;;;;;;;;;;7.62;45.37;100888.91;5054575;28;19923;-89
2024/01/05 02:05:10;;;;;;;;;;;;;;;7.57;45.85;100875.47;5065494;28;19994;-88
2024/01/05 02:07:36;;;;;;;;;;;;;;;7.58;46.48;100864.56;5059977;28;20019;-89
2024/01/05 02:10:02;;;;;;;;;;;;;;;7.64;46.33;100870.03;5061470;28;19966;-89
2024/01/05 02:12:27;;;;;;;;;;;;;;;7.68;46.66;100866.69;5062375;28;19917;-88
2024/01/05 02:14:52;;;;;;;;;;;;;;;7.73;46.17;100874.03;5056025;28;19927;-89
2024/01/05 02:17:27;;;;;;;;;;;;;;;7.76;46.33;100873.56;5056930;28;19978;-89
2024/01/05 02:19:52;;;;;;;;;;;;;;;7.80;46.01;100882.75;5060027;28;19923;-88
2024/01/05 02:22:18;;;;;;;;;;;;;;;7.79;46.12;100878.44;5063677;28;20411;-89
2024/01/05 02:24:43;;;;;;;;;;;;;;;7.76;45.91;100874.38;5064641;28;19967;-89
2024/01/05 02:27:09;;;;;;;;;;;;;;;7.75;46.29;100871.94;5063422;28;19916;-89
2024/01/05 02:29:36;;;;;;;;;;;;;;;7.76;46.39;100878.91;5064120;28;19942;-89
2024/01/05 02:32:01;;;;;;;;;;;;;;;7.75;46.33;100882.59;5065602;28;20381;-89
2024/01/05 02:34:27;;;;;;;;;;;;;;;7.74;46.03;100875.66;5063638;28;19925;-89
2024/01/05 02:36:52;;;;;;;;;;;;;;;7.72;46.31;100885.69;5068146;28;19940;-89
2024/01/05 02:39:17;;;;;;;;;;;;;;;7.72;46.43;100872.38;5062522;28;19952;-89
2024/01/05 02:41:42;;;;;;;;;;;;;;;7.71;46.50;100870.75;5061260;28;19958;-89
2024/01/05 02:44:08;;;;;;;;;;;;;;;7.74;46.63;100864.97;5058495;28;19931;-89
2024/01/05 02:46:35;;;;;;;;;;;;;;;7.78;46.41;100858.97;5063937;28;19924;-89
2024/01/05 02:49:00;;;;;;;;;;;;;;;7.80;46.43;100853.41;5065006;28;19925;-89
2024/01/05 02:51:25;;;;;;;;;;;;;;;7.82;46.54;100845.97;5063711;28;19923;-89
2024/01/05 02:53:51;;;;;;;;;;;;;;;7.84;46.45;100838.56;5065835;28;19917;-89
2024/01/05 02:56:20;;;;;;;;;;;;;;;7.88;46.13;100839.72;5063601;28;19971;-89
2024/01/05 02:58:45;;;;;;;;;;;;;;;7.88;45.97;100839.72;5061956;28;20396;-89
2024/01/05 03:01:14;;;;;;;;;;;;;;;7.84;45.89;100842.03;5060677;28;19966;-88
2024/01/05 03:03:39;;;;;;;;;;;;;;;7.81;45.94;100837.16;5066362;28;19924;-89
2024/01/05 03:06:05;;;;;;;;;;;;;;;7.80;46.09;100837.38;5064572;28;20378;-89
2024/01/05 03:08:30;;;;;;;;;;;;;;;7.80;45.93;100842.72;5065874;28;19951;-89
2024/01/05 03:10:56;;;;;;;;;;;;;;;7.81;46.37;100850.50;5063525;28;19964;-89
2024/01/05 03:13:21;;;;;;;;;;;;;;;7.81;46.11;100850.50;5065806;28;20484;-89
2024/01/05 03:15:46;;;;;;;;;;;;;;;7.82;45.57;100843.31;5064203;28;19917;-90
2024/01/05 03:18:12;;;;;;;;;;;;;;;7.84;45.42;100849.22;5063256;28;20285;-89
2024/01/05 03:20:39;;;;;;;;;;;;;;;7.80;44.99;100853.41;5065763;28;19925;-89
2024/01/05 03:23:04;;;;;;;;;;;;;;;7.73;44.89;100855.34;5064623;28;19951;-90
2024/01/05 03:25:30;;;;;;;;;;;;;;;7.66;45.30;100854.63;5063552;28;19970;-89
2024/01/05 03:27:55;;;;;;;;;;;;;;;7.61;45.51;100849.97;5065427;28;20362;-89
2024/01/05 03:30:20;;;;;;;;;;;;;;;7.60;46.13;100847.53;5064554;28;19917;-89
2024/01/05 03:32:46;;;;;;;;;;;;;;;7.63;46.05;100849.72;5062345;28;20296;-88
2024/01/05 03:35:11;;;;;;;;;;;;;;;7.67;46.02;100853.56;5061206;28;19913;-89
2024/01/05 03:37:36;;;;;;;;;;;;;;;7.71;45.51;100846.75;5064337;28;19928;-90
2024/01/05 03:40:02;;;;;;;;;;;;;;;7.71;45.40;100854.75;5062717;28;21625;-89
2024/01/05 03:42:28;;;;;;;;;;;;;;;7.69;45.30;100852.31;5064199;28;19951;-89
2024/01/05 03:44:53;;;;;;;;;;;;;;;7.67;45.45;100849.06;5062238;28;19952;-89
2024/01/05 03:47:18;;;;;;;;;;;;;;;7.63;45.53;100847.88;5056768;28;19929;-89
2024/01/05 03:49:44;;;;;;;;;;;;;;;7.62;46.04;100842.78;5059510;28;19999;-89
2024/01/05 03:52:09;;;;;;;;;;;;;;;7.64;45.62;100843.34;5064085;28;19917;-89
2024/01/05 03:54:34;;;;;;;;;;;;;;;7.64;45.57;100846.84;5066776;28;20389;-89
2024/01/05 03:57:00;;;;;;;;;;;;;;;7.62;45.11;100843.59;5060059;28;20375;-90
2024/01/05 03:59:25;;;;;;;;;;;;;;;7.60;45.19;100843.00;5063543;28;21187;-89
2024/01/05 04:01:50;;;;;;;;;;;;;;;7.61;45.17;100839.28;5067335;28;20261;-89
2024/01/05 04:04:16;;;;;;;;;;;;;;;7.60;45.44;100831.53;5064469;28;20450;-89
2024/01/05 04:06:41;;;;;;;;;;;;;;;7.63;45.76;100829.22;5061716;28;19920;-89
2024/01/05 04:09:09;;;;;;;;;;;;;;;7.66;45.61;100833.28;5063968;28;19916;-89
2024/01/05 04:11:36;;;;;;;;;;;;;;;7.67;45.65;100827.72;5061604;28;19921;-89
2024/01/05 04:14:01;;;;;;;;;;;;;;;7.66;45.80;100828.75;5064996;28;19939;-89
2024/01/05 04:16:26;;;;;;;;;;;;;;;7.66;45.51;100825.28;5067307;28;21549;-89
2024/01/05 04:18:51;;;;;;;;;;;;;;;7.65;45.42;100828.97;5063951;28;19920;-90
2024/01/05 04:21:17;;;;;;;;;;;;;;;7.63;46.06;100825.72;5064817;28;20336;-89
2024/01/05 04:23:42;;;;;;;;;;;;;;;7.64;46.16;100819.38;5094630;27;20407;-90
2024/01/05 04:26:07;;;;;;;;;;;;;;;7.65;46.00;100824.47;5065165;28;19974;-90
2024/01/05 04:28:33;;;;;;;;;;;;;;;7.67;46.04;100826.91;5066445;28;19925;-89
2024/01/05 04:30:58;;;;;;;;;;;;;;;7.67;45.99;100819.72;5060759;28;19970;-90
2024/01/05 04:33:23;;;;;;;;;;;;;;;7.72;46.14;100824.34;5063051;28;19924;-89
2024/01/05 04:35:49;;;;;;;;;;;;;;;7.74;46.09;100822.31;5061435;28;19931;-89
2024/01/05 04:38:14;;;;;;;;;;;;;;;7.74;45.79;100822.31;5067254;28;20353;-89
2024/01/05 04:40:39;;;;;;;;;;;;;;;7.75;45.68;100818.59;5061692;28;19924;-90
2024/01/05 04:43:04;;;;;;;;;;;;;;;7.74;45.96;100825.78;5062659;28;19994;-90
2024/01/05 04:45:30;;;;;;;;;;;;;;;7.75;45.80;100821.25;5067198;28;19927;-89
2024/01/05 04:47:55;;;;;;;;;;;;;;;7.75;45.88;100823.94;5062087;28;19990;-90
2024/01/05 04:50:20;;;;;;;;;;;;;;;7.76;45.89;100814.88;5064086;28;19925;-90
2024/01/05 04:52:46;;;;;;;;;;;;;;;7.75;45.69;100813.25;5056702;28;19926;-90
2024/01/05 04:55:14;;;;;;;;;;;;;;;7.76;45.72;100820.22;5058232;28;19994;-89
2024/01/05 04:57:40;;;;;;;;;;;;;;;7.77;45.76;100824.50;5058422;28;19921;-90
2024/01/05 05:00:06;;;;;;;;;;;;;;;7.75;45.57;100819.41;5066660;28;20450;-90
2024/01/05 05:02:31;;;;;;;;;;;;;;;7.74;45.59;100811.63;5060691;28;19931;-89
2024/01/05 05:04:56;;;;;;;;;;;;;;;7.73;45.62;100812.69;5064142;28;19920;-90
2024/01/05 05:07:21;;;;;;;;;;;;;;;7.73;45.88;100807.34;5064856;28;20785;-90
2024/01/05 05:09:47;;;;;;;;;;;;;;;7.73;45.68;100804.69;5066299;28;19924;-90
2024/01/05 05:12:12;;;;;;;;;;;;;;;7.73;45.87;100807.34;5064700;28;20802;-90
2024/01/05 05:14:37;;;;;;;;;;;;;;;7.73;45.65;100802.81;5069414;28;19961;-91
2024/01/05 05:17:03;;;;;;;;;;;;;;;7.76;45.71;100798.88;5061970;28;19927;-90
2024/01/05 05:19:28;;;;;;;;;;;;;;;7.77;45.39;100801.31;5065847;28;19939;-89
2024/01/05 05:21:53;;;;;;;;;;;;;;;7.79;45.78;100811.75;5065475;28;20266;-89
2024/01/05 05:24:19;;;;;;;;;;;;;;;7.81;45.71;100817.69;5064722;28;19916;-90
2024/01/05 05:26:44;;;;;;;;;;;;;;;7.80;45.38;100816.06;5061824;28;20372;-90
2024/01/05 05:29:10;;;;;;;;;;;;;;;7.81;45.93;100823.00;5066845;28;19923;-91
2024/01/05 05:31:35;;;;;;;;;;;;;;;7.82;45.51;100821.97;5065957;28;20373;-90
2024/01/05 05:34:00;;;;;;;;;;;;;;;7.82;45.37;100824.63;5062321;28;19923;-90
2024/01/05 05:36:25;;;;;;;;;;;;;;;7.82;45.54;100816.63;5066862;28;19916;-91
2024/01/05 05:38:51;;;;;;;;;;;;;;;7.85;45.72;100825.00;5060541;28;20741;-90
2024/01/05 05:41:16;;;;;;;;;;;;;;;7.84;45.87;100820.69;5058833;28;19916;-91
2024/01/05 05:43:41;;;;;;;;;;;;;;;7.86;45.41;100810.59;5065129;28;19924;-91
2024/01/05 05:46:07;;;;;;;;;;;;;;;7.86;45.75;100807.94;5064016;28;19917;-90
2024/01/05 05:48:32;;;;;;;;;;;;;;;7.86;45.30;100815.94;5064110;28;20152;-90
2024/01/05 05:50:57;;;;;;;;;;;;;;;7.86;45.79;100813.28;5055857;28;19924;-90
2024/01/05 05:53:23;;;;;;;;;;;;;;;7.86;45.13;100810.59;5059627;28;20019;-90
2024/01/05 05:55:48;;;;;;;;;;;;;;;7.85;45.31;100813.50;5060102;28;19917;-90
2024/01/05 05:58:14;;;;;;;;;;;;;;;7.87;45.42;100819.41;5057204;28;19990;-92
2024/01/05 06:00:39;;;;;;;;;;;;;;;7.88;45.16;100811.19;5054937;28;19916;-90
2024/01/05 06:03:06;;;;;;;;;;;;;;;7.86;45.11;100810.59;5065661;28;19920;-90
2024/01/05 06:05:32;;;;;;;;;;;;;;;7.86;45.30;100812.47;5071048;28;19916;-90
2024/01/05 06:07:57;;;;;;;;;;;;;;;7.85;45.25;100806.31;5073153;28;20399;-90
2024/01/05 06:10:23;;;;;;;;;;;;;;;7.84;45.07;100806.53;5067577;28;19925;-90
2024/01/05 06:12:48;;;;;;;;;;;;;;;7.82;45.24;100806.78;5072786;28;20020;-91
2024/01/05 06:15:13;;;;;;;;;;;;;;;7.82;45.30;100800.63;5067121;28;20437;-91
2024/01/05 06:17:38;;;;;;;;;;;;;;;7.82;45.44;100798.78;5073709;28;19927;-90
2024/01/05 06:20:04;;;;;;;;;;;;;;;7.83;45.38;100802.25;5069341;28;19970;-89
2024/01/05 06:22:30;;;;;;;;;;;;;;;7.81;45.20;100807.00;5066055;28;19920;-90
2024/01/05 06:24:56;;;;;;;;;;;;;;;7.80;45.13;100805.38;5060723;28;20620;-90
2024/01/05 06:27:21;;;;;;;;;;;;;;;7.79;45.18;100814.44;5060028;28;19924;-91
2024/01/05 06:29:46;;;;;;;;;;;;;;;7.78;45.74;100815.47;5063660;28;19925;-90
2024/01/05 06:32:12;;;;;;;;;;;;;;;7.77;45.17;100824.50;5061276;28;19916;-90
2024/01/05 06:34:37;;;;;;;;;;;;;;;7.75;45.32;100819.41;5063371;28;19921;-89
2024/01/05 06:37:02;;;;;;;;;;;;;;;7.74;45.35;100822.31;5064855;28;19920;-92
2024/01/05 06:39:28;;;;;;;;;;;;;;;7.74;45.67;100828.44;5062568;28;19924;-91
2024/01/05 06:41:53;;;;;;;;;;;;;;;7.76;45.41;100825.56;5062327;28;20483;-90
2024/01/05 06:44:19;;;;;;;;;;;;;;;7.76;45.31;100834.38;5063869;28;19927;-89
2024/01/05 06:46:44;;;;;;;;;;;;;;;7.77;45.35;100844.00;5064438;28;19932;-90
2024/01/05 06:49:09;;;;;;;;;;;;;;;7.79;45.12;100835.75;5064720;28;19923;-89
2024/01/05 06:51:38;;;;;;;;;;;;;;;7.79;45.19;100841.09;5061355;28;19971;-91
2024/01/05 06:54:04;;;;;;;;;;;;;;;7.76;45.33;100839.69;5063901;28;19930;-90
2024/01/05 06:56:32;;;;;;;;;;;;;;;7.76;45.35;100831.69;5066460;28;19979;-89
2024/01/05 06:58:58;;;;;;;;;;;;;;;7.77;45.28;100832.50;5062979;28;19979;-91
2024/01/05 07:01:23;;;;;;;;;;;;;;;7.77;45.47;100832.50;5068963;28;19924;-90
2024/01/05 07:03:48;;;;;;;;;;;;;;;7.77;45.23;100829.84;5065382;28;20004;-90
2024/01/05 07:06:14;;;;;;;;;;;;;;;7.76;45.24;100828.22;5067362;28;19925;-90
2024/01/05 07:08:40;;;;;;;;;;;;;;;7.75;45.24;100826.59;5072497;28;19949;-90
2024/01/05 07:11:05;;;;;;;;;;;;;;;7.72;45.45;100825.19;5072189;28;19939;-90
2024/01/05 07:13:31;;;;;;;;;;;;;;;7.72;45.61;100832.34;5071312;28;19917;-90
2024/01/05 07:15:56;;;;;;;;;;;;;;;7.74;45.72;100831.13;5077164;28;20277;-91
2024/01/05 07:18:21;;;;;;;;;;;;;;;7.77;45.33;100821.84;5067922;28;19921;-90
2024/01/05 07:20:46;;;;;;;;;;;;;;;7.78;45.38;100815.47;5068656;28;19923;-90
2024/01/05 07:23:12;;;;;;;;;;;;;;;7.78;45.64;100807.47;5072886;28;19952;-91
2024/01/05 07:25:37;;;;;;;;;;;;;;;7.79;45.42;100817.09;5076612;28;19951;-89
2024/01/05 07:28:03;;;;;;;;;;;;;;;7.76;45.50;100815.69;5073772;28;19927;-90
2024/01/05 07:30:28;;;;;;;;;;;;;;;7.76;45.67;100817.56;5076418;28;19916;-90
2024/01/05 07:32:54;;;;;;;;;;;;;;;7.77;45.56;100817.31;5069920;28;19939;-90
2024/01/05 07:35:19;;;;;;;;;;;;;;;7.77;45.43;100819.19;5071450;28;19916;-89
2024/01/05 07:37:46;;;;;;;;;;;;;;;7.76;45.06;100815.69;5075461;28;19929;-90
2024/01/05 07:40:11;;;;;;;;;;;;;;;7.73;45.58;100820.69;5077144;28;19917;-90
2024/01/05 07:42:37;;;;;;;;;;;;;;;7.70;45.35;100824.59;5073421;28;19924;-90
2024/01/05 07:45:04;;;;;;;;;;;;;;;7.69;45.40;100830.97;5067117;28;19917;-89
2024/01/05 07:47:29;;;;;;;;;;;;;;;7.70;45.56;100826.44;5068516;28;19959;-89
2024/01/05 07:49:55;;;;;;;;;;;;;;;7.73;45.65;100826.81;5073637;28;19940;-90
2024/01/05 07:52:20;;;;;;;;;;;;;;;7.73;45.77;100828.69;5067866;28;19967;-90
2024/01/05 07:54:46;;;;;;;;;;;;;;;7.73;45.68;100831.34;5068138;28;19928;-90
2024/01/05 07:57:11;;;;;;;;;;;;;;;7.75;45.57;100835.41;5073814;28;20638;-90
2024/01/05 07:59:36;;;;;;;;;;;;;;;7.75;45.52;100824.75;5072348;28;20361;-89
2024/01/05 08:02:02;;;;;;;;;;;;;;;7.74;45.31;100832.97;5068610;28;19926;-90
2024/01/05 08:04:28;;;;;;;;;;;;;;;7.71;45.29;100834.22;5064288;28;19965;-90
2024/01/05 08:06:53;;;;;;;;;;;;;;;7.73;45.67;100842.81;5060986;28;20280;-89
2024/01/05 08:09:19;;;;;;;;;;;;;;;7.74;45.25;100843.66;5072500;28;19939;-89
2024/01/05 08:11:44;;;;;;;;;;;;;;;7.74;45.55;100844.47;5068520;28;20441;-90
2024/01/05 08:14:09;;;;;;;;;;;;;;;7.76;45.75;100846.91;5068763;28;19921;-90
2024/01/05 08:16:35;;;;;;;;;;;;;;;7.77;45.50;100860.00;5065387;28;19920;-89
2024/01/05 08:19:00;;;;;;;;;;;;;;;7.78;45.66;100860.81;5073986;28;19921;-89
2024/01/05 08:21:26;;;;;;;;;;;;;;;7.76;45.76;100858.38;5070817;28;19986;-89
2024/01/05 08:23:51;;;;;;;;;;;;;;;7.75;45.29;100861.28;5073112;28;19922;-91
2024/01/05 08:26:19;;;;;;;;;;;;;;;7.72;45.62;100864.38;5068554;28;19912;-90
2024/01/05 08:28:45;;;;;;;;;;;;;;;7.71;45.54;100858.22;5063485;28;19923;-89
2024/01/05 08:31:10;;;;;;;;;;;;;;;7.71;45.48;100865.41;5077235;28;19920;-90
2024/01/05 08:33:36;;;;;;;;;;;;;;;7.71;45.70;100863.56;5064452;28;19959;-90
2024/01/05 08:36:01;;;;;;;;;;;;;;;7.74;46.01;100859.66;5071524;28;19943;-89
2024/01/05 08:38:27;;;;;;;;;;;;;;;7.74;45.67;100855.13;5070389;28;19920;-89
2024/01/05 08:40:54;;;;;;;;;;;;;;;7.73;45.61;100858.84;5067140;28;20555;-90
2024/01/05 08:43:20;;;;;;;;;;;;;;;7.73;45.99;100858.03;5073197;28;20261;-90
2024/01/05 08:45:46;;;;;;;;;;;;;;;7.68;46.13;100865.88;5070211;28;19917;-90
2024/01/05 08:48:11;;;;;;;;;;;;;;;7.69;45.93;100870.16;5068236;28;20589;-89
2024/01/05 08:50:37;;;;;;;;;;;;;;;7.68;46.28;100871.19;5072415;28;19916;-91
2024/01/05 08:53:02;;;;;;;;;;;;;;;7.68;45.93;100873.88;5066708;28;19967;-90
2024/01/05 08:55:28;;;;;;;;;;;;;;;7.67;46.04;100874.91;5070954;28;19931;-89
2024/01/05 08:57:53;;;;;;;;;;;;;;;7.65;45.99;100877.00;5064309;28;19993;-90
2024/01/05 09:00:19;;;;;;;;;;;;;;;7.62;46.19;100886.25;5071067;28;20344;-90
2024/01/05 09:02:44;;;;;;;;;;;;;;;7.62;46.31;100888.09;5075078;28;19920;-90
2024/01/05 09:05:10;;;;;;;;;;;;;;;7.63;46.56;100889.72;5069837;28;19953;-90
2024/01/05 09:07:35;;;;;;;;;;;;;;;7.65;46.31;100890.31;5065983;28;19943;-91
2024/01/05 09:10:01;;;;;;;;;;;;;;;7.63;46.39;100887.88;5079479;28;19916;-90
2024/01/05 09:12:27;;;;;;;;;;;;;;;7.62;46.60;100894.25;5067122;28;19916;-91
2024/01/05 09:14:52;;;;;;;;;;;;;;;7.61;46.57;100902.47;5072200;28;19912;-90
2024/01/05 09:17:18;;;;;;;;;;;;;;;7.61;46.66;100902.47;5065834;28;19921;-90
2024/01/05 09:19:43;;;;;;;;;;;;;;;7.62;46.94;100909.44;5066882;28;19951;-90
2024/01/05 09:22:09;;;;;;;;;;;;;;;7.62;46.58;100906.78;5067841;28;19923;-89
2024/01/05 09:24:35;;;;;;;;;;;;;;;7.62;46.58;100914.78;5064559;28;19917;-89
2024/01/05 09:27:02;;;;;;;;;;;;;;;7.58;46.49;100901.09;5067985;28;20395;-90
2024/01/05 09:29:27;;;;;;;;;;;;;;;7.56;46.67;100901.31;5069706;28;19927;-89
2024/01/05 09:31:53;;;;;;;;;;;;;;;7.58;46.74;100896.56;5066671;28;19920;-90
2024/01/05 09:34:18;;;;;;;;;;;;;;;7.58;46.71;100883.22;5068255;28;20080;-90
2024/01/05 09:36:44;;;;;;;;;;;;;;;7.58;46.86;100883.22;5061929;28;19916;-89
2024/01/05 09:39:12;;;;;;;;;;;;;;;7.59;46.65;100870.72;5066562;28;19923;-88
2024/01/05 09:41:39;;;;;;;;;;;;;;;7.60;46.88;100866.19;5061728;28;20411;-90
2024/01/05 09:44:05;;;;;;;;;;;;;;;7.60;47.03;100863.53;5067294;28;19920;-90
2024/01/05 09:46:30;;;;;;;;;;;;;;;7.58;46.71;100861.09;5066438;28;19912;-90
2024/01/05 09:48:57;;;;;;;;;;;;;;;7.56;46.77;100869.31;5068257;28;20383;-89
2024/01/05 09:51:22;;;;;;;;;;;;;;;7.55;47.15;100865.03;5065426;28;19920;-90
2024/01/05 09:53:48;;;;;;;;;;;;;;;7.54;46.74;100860.72;5074757;28;20309;-90
2024/01/05 09:56:15;;;;;;;;;;;;;;;7.53;46.92;100868.91;5066871;28;20003;-90
2024/01/05 09:58:40;;;;;;;;;;;;;;;7.53;46.97;100869.72;5063475;28;19942;-88
2024/01/05 10:01:07;;;;;;;;;;;;;;;7.50;47.07;100862.19;5071092;28;19919;-88
2024/01/05 10:03:33;;;;;;;;;;;;;;;7.47;47.21;100862.66;5065612;28;19921;-89
2024/01/05 10:05:59;;;;;;;;;;;;;;;7.48;47.11;100858.94;5067615;28;19978;-89
2024/01/05 10:08:24;;;;;;;;;;;;;;;7.48;47.01;100850.94;5069860;28;19916;-89
2024/01/05 10:10:53;;;;;;;;;;;;;;;7.46;47.08;100855.69;5066967;28;19921;-90
2024/01/05 10:13:18;;;;;;;;;;;;;;;7.46;47.00;100855.69;5063960;28;19921;-89
2024/01/05 10:15:56;;;;;;;;;;;;;;;7.46;46.94;100845.03;5065850;28;19931;-89
2024/01/05 10:18:22;;;;;;;;;;;;;;;7.47;47.28;100843.16;5064788;28;20396;-89
2024/01/05 10:20:48;;;;;;;;;;;;;;;7.48;46.91;100842.94;5064180;28;19993;-88
2024/01/05 10:23:13;;;;;;;;;;;;;;;7.51;47.14;100847.00;5067898;28;19921;-90
2024/01/05 10:25:39;;;;;;;;;;;;;;;7.52;47.03;100845.97;5058377;28;20380;-87
2024/01/05 10:28:24;;;;;;;;;;;;;;;7.50;46.87;100840.88;5056867;28;19920;-88
2024/01/05 10:30:51;;;;;;;;;;;;;;;7.51;47.29;100841.69;5062425;28;20003;-89
2024/01/05 10:33:18;;;;;;;;;;;;;;;7.50;47.31;100838.19;5065388;28;19916;-89
2024/01/05 10:35:44;;;;;;;;;;;;;;;7.52;47.09;100829.97;5065024;28;19927;-89
2024/01/05 10:38:11;;;;;;;;;;;;;;;7.55;47.12;100827.69;5067247;28;20007;-89
2024/01/05 10:40:36;;;;;;;;;;;;;;;7.57;47.41;100816.78;5062100;28;20341;-89
2024/01/05 10:43:11;;;;;;;;;;;;;;;7.57;46.96;100820.28;5070475;28;20019;-89
2024/01/05 10:45:38;;;;;;;;;;;;;;;7.57;47.35;100812.28;5072589;28;19942;-88
2024/01/05 10:48:11;;;;;;;;;;;;;;;7.54;47.22;100812.72;5067772;28;20427;-87
2024/01/05 10:50:37;;;;;;;;;;;;;;;7.52;47.26;100809.44;5066578;28;20003;-88
2024/01/05 10:53:03;;;;;;;;;;;;;;;7.52;47.31;100827.31;5067179;28;19995;-87
2024/01/05 10:55:31;;;;;;;;;;;;;;;7.48;47.36;100818.94;5066628;28;19916;-89
2024/01/05 10:57:56;;;;;;;;;;;;;;;7.50;47.43;100808.88;5067247;28;20023;-88
2024/01/05 11:00:24;;;;;;;;;;;;;;;7.52;47.08;100816.63;5070199;28;19999;-88
2024/01/05 11:02:50;;;;;;;;;;;;;;;7.53;47.41;100804.94;5073254;28;19916;-88
2024/01/05 11:05:16;;;;;;;;;;;;;;;7.52;47.08;100798.78;5066975;28;19927;-88
2024/01/05 11:07:42;;;;;;;;;;;;;;;7.53;47.13;100791.59;5064200;28;20339;-88
2024/01/05 11:10:19;;;;;;;;;;;;;;;7.52;47.05;100798.78;5065948;28;19966;-89
2024/01/05 11:13:11;;;;;;;;;;;;;;;7.50;46.84;100794.72;5066150;28;19925;-89
2024/01/05 11:15:49;;;;;;;;;;;;;;;7.46;47.17;100793.56;5061088;28;19920;-88
2024/01/05 11:18:20;;;;;;;;;;;;;;;7.44;47.41;100788.47;5063822;28;19928;-88
2024/01/05 11:20:52;;;;;;;;;;;;;;;7.41;46.90;100780.91;5061110;28;20411;-89
2024/01/05 11:23:19;;;;;;;;;;;;;;;7.37;46.92;100777.09;5063056;28;19924;-88
2024/01/05 11:25:45;;;;;;;;;;;;;;;7.31;47.17;100767.31;5063012;28;20034;-90
2024/01/05 11:28:30;;;;;;;;;;;;;;;7.30;47.35;100764.88;5066698;28;19970;-88
2024/01/05 11:30:55;;;;;;;;;;;;;;;7.32;47.27;100770.78;5061252;28;20158;-87
2024/01/05 11:33:39;;;;;;;;;;;;;;;7.32;47.52;100760.13;5059561;28;20391;-88
2024/01/05 11:36:05;;;;;;;;;;;;;;;7.37;47.20;100762.94;5067481;28;19923;-88
2024/01/05 11:38:30;;;;;;;;;;;;;;;7.32;47.40;100763.59;5059787;28;19920;-87
2024/01/05 11:40:55;;;;;;;;;;;;;;;7.32;47.24;100760.94;5066547;28;20293;-87
2024/01/05 11:43:37;;;;;;;;;;;;;;;7.32;47.31;100760.13;5061816;28;20004;-88
2024/01/05 11:46:03;;;;;;;;;;;;;;;7.30;47.10;100746.22;5064424;28;19955;-87
2024/01/05 11:48:34;;;;;;;;;;;;;;;7.27;47.21;100740.31;5068156;28;19951;-88
2024/01/05 11:51:00;;;;;;;;;;;;;;;7.31;47.40;100739.84;5072379;28;20384;-88
2024/01/05 11:53:28;;;;;;;;;;;;;;;7.34;47.20;100737.53;5070493;28;19922;-88
2024/01/05 11:55:57;;;;;;;;;;;;;;;7.33;46.99;100732.44;5066869;28;20015;-88
2024/01/05 11:58:25;;;;;;;;;;;;;;;7.34;47.60;100726.88;5070904;28;19921;-89
2024/01/05 12:00:51;;;;;;;;;;;;;;;7.39;47.28;100724.34;5065881;28;19917;-88
2024/01/05 12:03:17;;;;;;;;;;;;;;;7.39;47.42;100723.53;5063309;28;19962;-89
2024/01/05 12:05:43;;;;;;;;;;;;;;;7.41;47.27;100734.78;5058630;28;19916;-88
2024/01/05 12:08:10;;;;;;;;;;;;;;;7.39;47.35;100737.69;5061906;28;19969;-87
2024/01/05 12:10:36;;;;;;;;;;;;;;;7.35;47.05;100725.81;5066397;28;19921;-88
2024/01/05 12:13:01;;;;;;;;;;;;;;;7.34;47.21;100718.06;5065441;28;19924;-88
2024/01/05 12:15:26;;;;;;;;;;;;;;;7.32;47.13;100723.63;5073939;28;20415;-88
2024/01/05 12:18:05;;;;;;;;;;;;;;;7.31;47.16;100715.84;5073290;28;19920;-88
2024/01/05 12:20:30;;;;;;;;;;;;;;;7.30;47.09;100701.72;5068893;28;19916;-89
2024/01/05 12:22:56;;;;;;;;;;;;;;;7.32;47.23;100680.97;5072602;28;19925;-86
2024/01/05 12:25:22;;;;;;;;;;;;;;;7.36;47.11;100690.16;5067440;28;19925;-89
2024/01/05 12:27:47;;;;;;;;;;;;;;;7.36;47.44;100670.66;5067501;28;19920;-88
2024/01/05 12:30:13;;;;;;;;;;;;;;;7.36;47.41;100671.50;5066316;28;19962;-88
2024/01/05 12:32:38;;;;;;;;;;;;;;;7.37;47.45;100675.78;5061879;28;20388;-87
2024/01/05 12:35:04;;;;;;;;;;;;;;;7.38;47.15;100687.28;5065963;28;19916;-88
2024/01/05 12:37:29;;;;;;;;;;;;;;;7.39;47.08;100687.03;5062185;28;19920;-87
2024/01/05 12:40:05;;;;;;;;;;;;;;;7.36;47.09;100690.16;5061403;28;19928;-87
2024/01/05 12:42:33;;;;;;;;;;;;;;;7.37;47.42;100698.97;5066150;28;20841;-87